Terminal Aerodrome Forecast
Issued by NWS Lake Charles, LA

Home | Current Version | Previous Version | Text Only | Print | Product List | Glossary On
Versions: 1 2 3 4 5 6 7 8 9 10 11 12 13 14 15 16 17 18 19 20 21 22 23
000
FTUS44 KLCH 051100
TAFLFT
TAF
KLFT 051129Z 0512/0612 36018G26KT P6SM -RA OVC012
      TEMPO 0514/0518 4SM RA BR SCT012 OVC025
     FM051800 01022G30KT P6SM VCSH OVC025
     FM060000 01018G26KT P6SM SCT250
     FM060600 01014G20KT P6SM SKC=

USA.gov is the U.S. government's official web portal to all federal, state and local government web resources and services.